Husser, Louisiana
Current Conditions -  °F | °C
As of 2:55 PM on Thursday 27 Nov 2014 (Local Time) from KHDC Reporting Station
Clear Clear  
Wind Chill: 61°   Ceiling: Unl
Heat Index: 61°   Visibility: 10mi
Dew Point: 23°   Wind: 14mph
Humidity: 23%   Direction: 10°N
Pressure: 30.41"   Gusts: 18mph
Location:  30.68°N, 90.34°W
Report Text: KHDC 272055Z AUTO 01012G16KT 10SM CLR 16/M05 A3041 RMK AO2
Loading
Personal Weather Stations






























Interactive Weather Map New forecast layout! Learn more

10-Day Weather Forecast

Advertisements
Track Severe Weather on mobile